sensor_id;sensor_type;location;lat;lon;timestamp;P1;durP1;ratioP1;P2;durP2;ratioP2
6133;SDS011;3098;42.678;23.364;2023-07-29T00:01:08;7.57;;;4.20;;
6133;SDS011;3098;42.678;23.364;2023-07-29T00:03:35;6.30;;;3.85;;
6133;SDS011;3098;42.678;23.364;2023-07-29T00:06:02;4.45;;;3.50;;
6133;SDS011;3098;42.678;23.364;2023-07-29T00:08:29;5.85;;;3.50;;
6133;SDS011;3098;42.678;23.364;2023-07-29T00:10:58;6.03;;;3.53;;
6133;SDS011;3098;42.678;23.364;2023-07-29T00:13:24;5.55;;;3.60;;
6133;SDS011;3098;42.678;23.364;2023-07-29T00:15:53;7.22;;;4.03;;
6133;SDS011;3098;42.678;23.364;2023-07-29T00:18:20;5.80;;;3.60;;
6133;SDS011;3098;42.678;23.364;2023-07-29T00:20:48;5.93;;;3.53;;
6133;SDS011;3098;42.678;23.364;2023-07-29T00:23:16;5.38;;;3.58;;
6133;SDS011;3098;42.678;23.364;2023-07-29T00:25:45;4.55;;;3.22;;
6133;SDS011;3098;42.678;23.364;2023-07-29T00:28:13;5.90;;;3.50;;
6133;SDS011;3098;42.678;23.364;2023-07-29T00:30:40;15.90;;;3.53;;
6133;SDS011;3098;42.678;23.364;2023-07-29T00:33:08;4.93;;;3.20;;
6133;SDS011;3098;42.678;23.364;2023-07-29T00:35:35;6.22;;;3.40;;
6133;SDS011;3098;42.678;23.364;2023-07-29T00:38:02;4.63;;;3.30;;
6133;SDS011;3098;42.678;23.364;2023-07-29T00:40:29;8.32;;;3.05;;
6133;SDS011;3098;42.678;23.364;2023-07-29T00:43:01;9.93;;;3.75;;
6133;SDS011;3098;42.678;23.364;2023-07-29T00:45:30;4.28;;;3.05;;
6133;SDS011;3098;42.678;23.364;2023-07-29T00:47:58;6.25;;;3.00;;
6133;SDS011;3098;42.678;23.364;2023-07-29T00:50:26;4.72;;;3.05;;
6133;SDS011;3098;42.678;23.364;2023-07-29T00:52:55;5.28;;;3.50;;
6133;SDS011;3098;42.678;23.364;2023-07-29T00:55:23;4.43;;;3.30;;
6133;SDS011;3098;42.678;23.364;2023-07-29T00:57:50;3.65;;;3.05;;
6133;SDS011;3098;42.678;23.364;2023-07-29T01:00:19;5.13;;;3.22;;
6133;SDS011;3098;42.678;23.364;2023-07-29T01:02:49;9.25;;;3.50;;
6133;SDS011;3098;42.678;23.364;2023-07-29T01:05:17;4.10;;;3.03;;
6133;SDS011;3098;42.678;23.364;2023-07-29T01:07:47;5.38;;;3.22;;
6133;SDS011;3098;42.678;23.364;2023-07-29T01:10:27;3.88;;;3.10;;
6133;SDS011;3098;42.678;23.364;2023-07-29T01:13:05;5.32;;;3.60;;
6133;SDS011;3098;42.678;23.364;2023-07-29T01:15:39;7.18;;;3.92;;
6133;SDS011;3098;42.678;23.364;2023-07-29T01:18:15;6.72;;;3.42;;
6133;SDS011;3098;42.678;23.364;2023-07-29T01:20:47;5.55;;;3.95;;
6133;SDS011;3098;42.678;23.364;2023-07-29T01:23:15;4.47;;;3.22;;
6133;SDS011;3098;42.678;23.364;2023-07-29T01:25:44;6.28;;;3.70;;
6133;SDS011;3098;42.678;23.364;2023-07-29T01:28:11;6.25;;;4.03;;
6133;SDS011;3098;42.678;23.364;2023-07-29T01:30:39;8.48;;;4.13;;
6133;SDS011;3098;42.678;23.364;2023-07-29T01:33:09;6.05;;;3.97;;
6133;SDS011;3098;42.678;23.364;2023-07-29T01:35:44;7.05;;;3.78;;
6133;SDS011;3098;42.678;23.364;2023-07-29T01:38:16;5.35;;;3.45;;
6133;SDS011;3098;42.678;23.364;2023-07-29T01:40:47;6.60;;;3.85;;
6133;SDS011;3098;42.678;23.364;2023-07-29T01:43:15;6.13;;;3.60;;
6133;SDS011;3098;42.678;23.364;2023-07-29T01:45:44;5.43;;;3.00;;
6133;SDS011;3098;42.678;23.364;2023-07-29T01:48:11;6.03;;;3.95;;
6133;SDS011;3098;42.678;23.364;2023-07-29T01:50:38;7.80;;;3.85;;
6133;SDS011;3098;42.678;23.364;2023-07-29T01:53:05;5.28;;;3.53;;
6133;SDS011;3098;42.678;23.364;2023-07-29T01:55:32;8.73;;;3.28;;
6133;SDS011;3098;42.678;23.364;2023-07-29T01:58:01;5.47;;;3.63;;
6133;SDS011;3098;42.678;23.364;2023-07-29T02:00:28;8.27;;;3.25;;
6133;SDS011;3098;42.678;23.364;2023-07-29T02:02:55;5.22;;;3.72;;
6133;SDS011;3098;42.678;23.364;2023-07-29T02:05:22;7.25;;;3.80;;
6133;SDS011;3098;42.678;23.364;2023-07-29T02:07:49;5.50;;;3.38;;
6133;SDS011;3098;42.678;23.364;2023-07-29T02:10:16;4.70;;;3.40;;
6133;SDS011;3098;42.678;23.364;2023-07-29T02:12:43;7.78;;;4.05;;
6133;SDS011;3098;42.678;23.364;2023-07-29T02:15:12;6.65;;;3.83;;
6133;SDS011;3098;42.678;23.364;2023-07-29T02:17:41;4.80;;;3.40;;
6133;SDS011;3098;42.678;23.364;2023-07-29T02:20:09;6.32;;;3.53;;
6133;SDS011;3098;42.678;23.364;2023-07-29T02:22:37;8.73;;;3.80;;
6133;SDS011;3098;42.678;23.364;2023-07-29T02:25:05;7.70;;;3.97;;
6133;SDS011;3098;42.678;23.364;2023-07-29T02:27:32;4.43;;;3.13;;
6133;SDS011;3098;42.678;23.364;2023-07-29T02:29:59;5.50;;;3.65;;
6133;SDS011;3098;42.678;23.364;2023-07-29T02:32:28;5.80;;;2.88;;
6133;SDS011;3098;42.678;23.364;2023-07-29T02:34:56;6.97;;;3.67;;
6133;SDS011;3098;42.678;23.364;2023-07-29T02:37:22;6.35;;;3.38;;
6133;SDS011;3098;42.678;23.364;2023-07-29T02:39:49;9.45;;;3.53;;
6133;SDS011;3098;42.678;23.364;2023-07-29T02:42:16;5.50;;;3.63;;
6133;SDS011;3098;42.678;23.364;2023-07-29T02:44:44;4.85;;;3.30;;
6133;SDS011;3098;42.678;23.364;2023-07-29T02:47:11;6.68;;;3.47;;
6133;SDS011;3098;42.678;23.364;2023-07-29T02:49:39;5.82;;;3.38;;
6133;SDS011;3098;42.678;23.364;2023-07-29T02:52:07;11.95;;;3.47;;
6133;SDS011;3098;42.678;23.364;2023-07-29T02:54:34;8.07;;;3.78;;
6133;SDS011;3098;42.678;23.364;2023-07-29T02:57:01;8.85;;;3.42;;
6133;SDS011;3098;42.678;23.364;2023-07-29T02:59:29;6.47;;;3.60;;
6133;SDS011;3098;42.678;23.364;2023-07-29T03:01:56;8.02;;;4.05;;
6133;SDS011;3098;42.678;23.364;2023-07-29T03:04:23;6.78;;;3.25;;
6133;SDS011;3098;42.678;23.364;2023-07-29T03:06:52;8.82;;;3.65;;
6133;SDS011;3098;42.678;23.364;2023-07-29T03:09:19;10.35;;;4.55;;
6133;SDS011;3098;42.678;23.364;2023-07-29T03:11:46;5.13;;;3.60;;
6133;SDS011;3098;42.678;23.364;2023-07-29T03:14:13;6.22;;;3.72;;
6133;SDS011;3098;42.678;23.364;2023-07-29T03:16:40;6.53;;;3.97;;
6133;SDS011;3098;42.678;23.364;2023-07-29T03:19:08;8.02;;;4.30;;
6133;SDS011;3098;42.678;23.364;2023-07-29T03:21:35;4.95;;;3.30;;
6133;SDS011;3098;42.678;23.364;2023-07-29T03:24:05;6.63;;;4.00;;
6133;SDS011;3098;42.678;23.364;2023-07-29T03:26:33;6.40;;;3.83;;
6133;SDS011;3098;42.678;23.364;2023-07-29T03:29:00;7.07;;;3.90;;
6133;SDS011;3098;42.678;23.364;2023-07-29T03:31:27;5.80;;;4.10;;
6133;SDS011;3098;42.678;23.364;2023-07-29T03:33:54;5.85;;;3.72;;
6133;SDS011;3098;42.678;23.364;2023-07-29T03:36:21;10.57;;;4.68;;
6133;SDS011;3098;42.678;23.364;2023-07-29T03:38:50;7.57;;;3.72;;
6133;SDS011;3098;42.678;23.364;2023-07-29T03:41:18;4.00;;;3.15;;
6133;SDS011;3098;42.678;23.364;2023-07-29T03:43:45;7.30;;;3.95;;
6133;SDS011;3098;42.678;23.364;2023-07-29T03:46:12;5.97;;;3.95;;
6133;SDS011;3098;42.678;23.364;2023-07-29T03:48:43;5.78;;;3.38;;
6133;SDS011;3098;42.678;23.364;2023-07-29T03:51:10;8.75;;;3.78;;
6133;SDS011;3098;42.678;23.364;2023-07-29T03:53:37;7.05;;;4.03;;
6133;SDS011;3098;42.678;23.364;2023-07-29T03:56:04;6.32;;;3.78;;
6133;SDS011;3098;42.678;23.364;2023-07-29T03:58:33;7.35;;;3.50;;
6133;SDS011;3098;42.678;23.364;2023-07-29T04:01:00;6.45;;;3.50;;
6133;SDS011;3098;42.678;23.364;2023-07-29T04:03:27;7.82;;;4.28;;
6133;SDS011;3098;42.678;23.364;2023-07-29T04:05:57;9.93;;;4.10;;
6133;SDS011;3098;42.678;23.364;2023-07-29T04:08:24;7.75;;;4.28;;
6133;SDS011;3098;42.678;23.364;2023-07-29T04:10:51;5.22;;;3.70;;
6133;SDS011;3098;42.678;23.364;2023-07-29T04:13:18;5.72;;;3.60;;
6133;SDS011;3098;42.678;23.364;2023-07-29T04:15:47;10.23;;;4.18;;
6133;SDS011;3098;42.678;23.364;2023-07-29T04:18:14;8.43;;;4.15;;
6133;SDS011;3098;42.678;23.364;2023-07-29T04:20:41;5.65;;;3.55;;
6133;SDS011;3098;42.678;23.364;2023-07-29T04:23:08;5.38;;;3.92;;
6133;SDS011;3098;42.678;23.364;2023-07-29T04:25:35;5.70;;;3.53;;
6133;SDS011;3098;42.678;23.364;2023-07-29T04:28:02;9.82;;;3.80;;
6133;SDS011;3098;42.678;23.364;2023-07-29T04:30:30;8.20;;;4.30;;
6133;SDS011;3098;42.678;23.364;2023-07-29T04:32:59;7.95;;;4.10;;
6133;SDS011;3098;42.678;23.364;2023-07-29T04:35:26;6.65;;;3.65;;
6133;SDS011;3098;42.678;23.364;2023-07-29T04:37:53;7.32;;;3.85;;
6133;SDS011;3098;42.678;23.364;2023-07-29T04:40:20;10.35;;;4.03;;
6133;SDS011;3098;42.678;23.364;2023-07-29T04:42:48;5.43;;;3.60;;
6133;SDS011;3098;42.678;23.364;2023-07-29T04:45:15;7.50;;;3.55;;
6133;SDS011;3098;42.678;23.364;2023-07-29T04:47:42;6.95;;;4.18;;
6133;SDS011;3098;42.678;23.364;2023-07-29T04:50:11;8.35;;;4.20;;
6133;SDS011;3098;42.678;23.364;2023-07-29T04:52:38;8.48;;;3.70;;
6133;SDS011;3098;42.678;23.364;2023-07-29T04:55:05;6.70;;;4.40;;
6133;SDS011;3098;42.678;23.364;2023-07-29T04:57:32;7.05;;;3.90;;
6133;SDS011;3098;42.678;23.364;2023-07-29T04:59:59;7.15;;;4.05;;
6133;SDS011;3098;42.678;23.364;2023-07-29T05:02:26;7.05;;;3.92;;
6133;SDS011;3098;42.678;23.364;2023-07-29T05:04:53;6.38;;;4.07;;
6133;SDS011;3098;42.678;23.364;2023-07-29T05:07:22;7.13;;;3.80;;
6133;SDS011;3098;42.678;23.364;2023-07-29T05:09:49;7.10;;;3.75;;
6133;SDS011;3098;42.678;23.364;2023-07-29T05:12:16;5.25;;;3.65;;
6133;SDS011;3098;42.678;23.364;2023-07-29T05:14:42;4.60;;;3.33;;
6133;SDS011;3098;42.678;23.364;2023-07-29T05:17:09;5.30;;;3.95;;
6133;SDS011;3098;42.678;23.364;2023-07-29T05:19:37;15.02;;;3.90;;
6133;SDS011;3098;42.678;23.364;2023-07-29T05:22:04;5.75;;;3.65;;
6133;SDS011;3098;42.678;23.364;2023-07-29T05:24:32;5.70;;;3.40;;
6133;SDS011;3098;42.678;23.364;2023-07-29T05:26:59;7.43;;;3.83;;
6133;SDS011;3098;42.678;23.364;2023-07-29T05:29:26;4.45;;;3.25;;
6133;SDS011;3098;42.678;23.364;2023-07-29T05:31:54;4.05;;;3.10;;
6133;SDS011;3098;42.678;23.364;2023-07-29T05:34:22;7.53;;;3.20;;
6133;SDS011;3098;42.678;23.364;2023-07-29T05:36:49;6.38;;;3.30;;
6133;SDS011;3098;42.678;23.364;2023-07-29T05:39:16;5.38;;;3.42;;
6133;SDS011;3098;42.678;23.364;2023-07-29T05:41:44;5.03;;;3.38;;
6133;SDS011;3098;42.678;23.364;2023-07-29T05:44:12;5.57;;;3.60;;
6133;SDS011;3098;42.678;23.364;2023-07-29T05:46:39;5.07;;;3.50;;
6133;SDS011;3098;42.678;23.364;2023-07-29T05:49:06;6.28;;;3.30;;
6133;SDS011;3098;42.678;23.364;2023-07-29T05:51:34;10.50;;;3.72;;
6133;SDS011;3098;42.678;23.364;2023-07-29T05:54:01;7.10;;;3.28;;
6133;SDS011;3098;42.678;23.364;2023-07-29T05:56:28;7.10;;;3.40;;
6133;SDS011;3098;42.678;23.364;2023-07-29T05:58:58;8.60;;;4.00;;
6133;SDS011;3098;42.678;23.364;2023-07-29T06:01:25;5.93;;;3.20;;
6133;SDS011;3098;42.678;23.364;2023-07-29T06:03:53;9.85;;;4.18;;
6133;SDS011;3098;42.678;23.364;2023-07-29T06:06:20;10.98;;;4.13;;
6133;SDS011;3098;42.678;23.364;2023-07-29T06:08:48;6.07;;;4.07;;
6133;SDS011;3098;42.678;23.364;2023-07-29T06:11:16;5.63;;;3.90;;
6133;SDS011;3098;42.678;23.364;2023-07-29T06:13:43;5.63;;;4.40;;
6133;SDS011;3098;42.678;23.364;2023-07-29T06:16:11;6.05;;;3.97;;
6133;SDS011;3098;42.678;23.364;2023-07-29T06:18:38;10.02;;;4.72;;
6133;SDS011;3098;42.678;23.364;2023-07-29T06:21:05;9.00;;;4.57;;
6133;SDS011;3098;42.678;23.364;2023-07-29T06:23:33;9.63;;;4.05;;
6133;SDS011;3098;42.678;23.364;2023-07-29T06:26:00;5.00;;;3.72;;
6133;SDS011;3098;42.678;23.364;2023-07-29T06:28:27;7.25;;;4.43;;
6133;SDS011;3098;42.678;23.364;2023-07-29T06:30:54;5.03;;;3.70;;
6133;SDS011;3098;42.678;23.364;2023-07-29T06:33:23;6.10;;;4.18;;
6133;SDS011;3098;42.678;23.364;2023-07-29T06:35:49;8.05;;;4.07;;
6133;SDS011;3098;42.678;23.364;2023-07-29T06:38:16;7.85;;;4.22;;
6133;SDS011;3098;42.678;23.364;2023-07-29T06:40:46;7.13;;;4.20;;
6133;SDS011;3098;42.678;23.364;2023-07-29T06:43:13;9.65;;;4.15;;
6133;SDS011;3098;42.678;23.364;2023-07-29T06:45:40;6.15;;;4.43;;
6133;SDS011;3098;42.678;23.364;2023-07-29T06:48:08;11.80;;;3.97;;
6133;SDS011;3098;42.678;23.364;2023-07-29T06:50:36;7.03;;;4.30;;
6133;SDS011;3098;42.678;23.364;2023-07-29T06:53:03;10.60;;;4.68;;
6133;SDS011;3098;42.678;23.364;2023-07-29T06:55:31;5.60;;;4.10;;
6133;SDS011;3098;42.678;23.364;2023-07-29T06:57:58;6.85;;;3.78;;
6133;SDS011;3098;42.678;23.364;2023-07-29T07:00:27;7.18;;;3.75;;
6133;SDS011;3098;42.678;23.364;2023-07-29T07:02:54;8.20;;;4.13;;
6133;SDS011;3098;42.678;23.364;2023-07-29T07:05:22;6.00;;;3.70;;
6133;SDS011;3098;42.678;23.364;2023-07-29T07:07:52;9.23;;;4.35;;
6133;SDS011;3098;42.678;23.364;2023-07-29T07:10:19;8.75;;;4.50;;
6133;SDS011;3098;42.678;23.364;2023-07-29T07:12:49;5.35;;;3.75;;
6133;SDS011;3098;42.678;23.364;2023-07-29T07:15:16;4.82;;;3.72;;
6133;SDS011;3098;42.678;23.364;2023-07-29T07:17:43;9.70;;;3.55;;
6133;SDS011;3098;42.678;23.364;2023-07-29T07:20:11;6.40;;;3.90;;
6133;SDS011;3098;42.678;23.364;2023-07-29T07:22:38;6.40;;;4.20;;
6133;SDS011;3098;42.678;23.364;2023-07-29T07:25:07;7.05;;;4.55;;
6133;SDS011;3098;42.678;23.364;2023-07-29T07:27:35;6.55;;;4.03;;
6133;SDS011;3098;42.678;23.364;2023-07-29T07:30:02;10.30;;;4.43;;
6133;SDS011;3098;42.678;23.364;2023-07-29T07:32:31;9.18;;;4.28;;
6133;SDS011;3098;42.678;23.364;2023-07-29T07:34:58;10.15;;;3.92;;
6133;SDS011;3098;42.678;23.364;2023-07-29T07:37:25;8.13;;;4.10;;
6133;SDS011;3098;42.678;23.364;2023-07-29T07:39:52;7.28;;;3.75;;
6133;SDS011;3098;42.678;23.364;2023-07-29T07:42:21;7.65;;;5.20;;
6133;SDS011;3098;42.678;23.364;2023-07-29T07:44:48;10.52;;;4.28;;
6133;SDS011;3098;42.678;23.364;2023-07-29T07:47:16;6.88;;;3.90;;
6133;SDS011;3098;42.678;23.364;2023-07-29T07:49:43;9.70;;;3.53;;
6133;SDS011;3098;42.678;23.364;2023-07-29T07:52:10;7.18;;;3.60;;
6133;SDS011;3098;42.678;23.364;2023-07-29T07:54:37;8.52;;;4.10;;
6133;SDS011;3098;42.678;23.364;2023-07-29T07:57:05;7.85;;;3.97;;
6133;SDS011;3098;42.678;23.364;2023-07-29T07:59:33;6.57;;;4.28;;
6133;SDS011;3098;42.678;23.364;2023-07-29T08:02:00;4.47;;;3.47;;
6133;SDS011;3098;42.678;23.364;2023-07-29T08:04:28;8.05;;;3.75;;
6133;SDS011;3098;42.678;23.364;2023-07-29T08:06:55;5.53;;;3.70;;
6133;SDS011;3098;42.678;23.364;2023-07-29T08:09:22;3.75;;;3.35;;
6133;SDS011;3098;42.678;23.364;2023-07-29T08:11:49;6.65;;;3.20;;
6133;SDS011;3098;42.678;23.364;2023-07-29T08:14:17;6.03;;;3.83;;
6133;SDS011;3098;42.678;23.364;2023-07-29T08:16:46;8.35;;;3.78;;
6133;SDS011;3098;42.678;23.364;2023-07-29T08:19:14;5.80;;;3.70;;
6133;SDS011;3098;42.678;23.364;2023-07-29T08:21:41;4.93;;;3.55;;
6133;SDS011;3098;42.678;23.364;2023-07-29T08:24:08;5.50;;;3.42;;
6133;SDS011;3098;42.678;23.364;2023-07-29T08:26:36;7.20;;;3.20;;
6133;SDS011;3098;42.678;23.364;2023-07-29T08:29:03;5.18;;;3.08;;
6133;SDS011;3098;42.678;23.364;2023-07-29T08:31:32;4.50;;;3.65;;
6133;SDS011;3098;42.678;23.364;2023-07-29T08:34:01;3.47;;;3.10;;
6133;SDS011;3098;42.678;23.364;2023-07-29T08:36:28;8.93;;;2.85;;
6133;SDS011;3098;42.678;23.364;2023-07-29T08:38:55;5.75;;;3.15;;
6133;SDS011;3098;42.678;23.364;2023-07-29T08:41:24;3.83;;;3.00;;
6133;SDS011;3098;42.678;23.364;2023-07-29T08:43:56;3.47;;;2.80;;
6133;SDS011;3098;42.678;23.364;2023-07-29T08:46:30;3.38;;;2.65;;
6133;SDS011;3098;42.678;23.364;2023-07-29T08:48:58;3.88;;;3.10;;
6133;SDS011;3098;42.678;23.364;2023-07-29T08:51:28;4.90;;;3.13;;
6133;SDS011;3098;42.678;23.364;2023-07-29T08:53:57;6.00;;;2.78;;
6133;SDS011;3098;42.678;23.364;2023-07-29T08:56:25;2.60;;;2.40;;
6133;SDS011;3098;42.678;23.364;2023-07-29T08:58:55;3.47;;;2.72;;
6133;SDS011;3098;42.678;23.364;2023-07-29T09:01:25;5.88;;;3.00;;
6133;SDS011;3098;42.678;23.364;2023-07-29T09:03:53;6.50;;;3.15;;
6133;SDS011;3098;42.678;23.364;2023-07-29T09:06:22;4.93;;;3.08;;
6133;SDS011;3098;42.678;23.364;2023-07-29T09:08:53;4.07;;;2.92;;
6133;SDS011;3098;42.678;23.364;2023-07-29T09:11:22;3.10;;;2.65;;
6133;SDS011;3098;42.678;23.364;2023-07-29T09:13:49;5.93;;;3.08;;
6133;SDS011;3098;42.678;23.364;2023-07-29T09:16:18;7.50;;;3.25;;
6133;SDS011;3098;42.678;23.364;2023-07-29T09:18:47;3.38;;;2.97;;
6133;SDS011;3098;42.678;23.364;2023-07-29T09:21:15;4.68;;;2.53;;
6133;SDS011;3098;42.678;23.364;2023-07-29T09:23:45;4.13;;;2.75;;
6133;SDS011;3098;42.678;23.364;2023-07-29T09:26:14;4.32;;;2.67;;
6133;SDS011;3098;42.678;23.364;2023-07-29T09:28:51;2.60;;;2.30;;
6133;SDS011;3098;42.678;23.364;2023-07-29T09:31:19;2.88;;;2.20;;
6133;SDS011;3098;42.678;23.364;2023-07-29T09:33:47;2.67;;;2.08;;
6133;SDS011;3098;42.678;23.364;2023-07-29T09:36:14;3.85;;;2.42;;
6133;SDS011;3098;42.678;23.364;2023-07-29T09:38:41;3.40;;;2.65;;
6133;SDS011;3098;42.678;23.364;2023-07-29T09:41:13;2.50;;;2.30;;
6133;SDS011;3098;42.678;23.364;2023-07-29T09:43:42;4.78;;;2.15;;
6133;SDS011;3098;42.678;23.364;2023-07-29T09:46:09;2.42;;;2.22;;
6133;SDS011;3098;42.678;23.364;2023-07-29T09:48:37;2.92;;;2.00;;
6133;SDS011;3098;42.678;23.364;2023-07-29T09:51:10;2.42;;;2.10;;
6133;SDS011;3098;42.678;23.364;2023-07-29T09:53:41;2.25;;;2.05;;
6133;SDS011;3098;42.678;23.364;2023-07-29T09:56:09;2.58;;;2.05;;
6133;SDS011;3098;42.678;23.364;2023-07-29T09:58:38;1.90;;;1.70;;
6133;SDS011;3098;42.678;23.364;2023-07-29T10:01:05;2.90;;;1.88;;
6133;SDS011;3098;42.678;23.364;2023-07-29T10:03:32;1.92;;;1.60;;
6133;SDS011;3098;42.678;23.364;2023-07-29T10:06:00;2.88;;;1.90;;
6133;SDS011;3098;42.678;23.364;2023-07-29T10:08:29;2.30;;;1.60;;
6133;SDS011;3098;42.678;23.364;2023-07-29T10:10:58;2.20;;;1.80;;
6133;SDS011;3098;42.678;23.364;2023-07-29T10:13:27;1.88;;;1.60;;
6133;SDS011;3098;42.678;23.364;2023-07-29T10:15:56;6.22;;;1.90;;
6133;SDS011;3098;42.678;23.364;2023-07-29T10:18:24;4.05;;;1.48;;
6133;SDS011;3098;42.678;23.364;2023-07-29T10:20:59;1.75;;;1.55;;
6133;SDS011;3098;42.678;23.364;2023-07-29T10:23:31;1.98;;;1.42;;
6133;SDS011;3098;42.678;23.364;2023-07-29T10:26:02;2.17;;;1.60;;
6133;SDS011;3098;42.678;23.364;2023-07-29T10:28:31;2.80;;;1.70;;
6133;SDS011;3098;42.678;23.364;2023-07-29T10:31:01;3.17;;;1.70;;
6133;SDS011;3098;42.678;23.364;2023-07-29T10:33:31;2.08;;;1.40;;
6133;SDS011;3098;42.678;23.364;2023-07-29T10:36:00;3.50;;;1.52;;
6133;SDS011;3098;42.678;23.364;2023-07-29T10:38:29;5.15;;;1.77;;
6133;SDS011;3098;42.678;23.364;2023-07-29T10:40:56;2.20;;;1.80;;
6133;SDS011;3098;42.678;23.364;2023-07-29T10:43:26;1.83;;;1.40;;
6133;SDS011;3098;42.678;23.364;2023-07-29T10:45:57;2.05;;;1.52;;
6133;SDS011;3098;42.678;23.364;2023-07-29T10:48:43;1.70;;;1.58;;
6133;SDS011;3098;42.678;23.364;2023-07-29T10:51:22;2.08;;;1.50;;
6133;SDS011;3098;42.678;23.364;2023-07-29T10:53:54;2.05;;;1.42;;
6133;SDS011;3098;42.678;23.364;2023-07-29T10:56:29;3.15;;;1.80;;
6133;SDS011;3098;42.678;23.364;2023-07-29T10:58:58;4.50;;;1.80;;
6133;SDS011;3098;42.678;23.364;2023-07-29T11:01:29;1.67;;;1.48;;
6133;SDS011;3098;42.678;23.364;2023-07-29T11:10:02;3.33;;;1.77;;
6133;SDS011;3098;42.678;23.364;2023-07-29T11:12:34;4.05;;;1.70;;
6133;SDS011;3098;42.678;23.364;2023-07-29T11:15:23;3.25;;;1.63;;
6133;SDS011;3098;42.678;23.364;2023-07-29T11:17:51;1.60;;;1.50;;
6133;SDS011;3098;42.678;23.364;2023-07-29T11:20:22;1.85;;;1.50;;
6133;SDS011;3098;42.678;23.364;2023-07-29T11:22:50;1.45;;;1.30;;
6133;SDS011;3098;42.678;23.364;2023-07-29T11:25:19;1.30;;;1.20;;
6133;SDS011;3098;42.678;23.364;2023-07-29T11:27:48;1.38;;;1.23;;
6133;SDS011;3098;42.678;23.364;2023-07-29T11:30:18;1.40;;;1.17;;
6133;SDS011;3098;42.678;23.364;2023-07-29T11:32:47;1.40;;;1.20;;
6133;SDS011;3098;42.678;23.364;2023-07-29T11:35:15;1.40;;;1.20;;
6133;SDS011;3098;42.678;23.364;2023-07-29T11:37:45;1.63;;;1.20;;
6133;SDS011;3098;42.678;23.364;2023-07-29T11:40:14;2.38;;;1.30;;
6133;SDS011;3098;42.678;23.364;2023-07-29T11:42:42;1.40;;;1.30;;
6133;SDS011;3098;42.678;23.364;2023-07-29T11:45:10;1.50;;;1.30;;
6133;SDS011;3098;42.678;23.364;2023-07-29T11:47:39;1.65;;;1.30;;
6133;SDS011;3098;42.678;23.364;2023-07-29T11:50:08;1.38;;;1.27;;
6133;SDS011;3098;42.678;23.364;2023-07-29T11:52:39;5.80;;;1.38;;
6133;SDS011;3098;42.678;23.364;2023-07-29T11:55:10;2.85;;;1.88;;
6133;SDS011;3098;42.678;23.364;2023-07-29T11:57:39;2.45;;;1.63;;
6133;SDS011;3098;42.678;23.364;2023-07-29T12:00:07;1.50;;;1.40;;
6133;SDS011;3098;42.678;23.364;2023-07-29T12:02:37;1.35;;;1.20;;
6133;SDS011;3098;42.678;23.364;2023-07-29T12:05:09;1.30;;;1.20;;
6133;SDS011;3098;42.678;23.364;2023-07-29T12:07:38;1.83;;;1.33;;
6133;SDS011;3098;42.678;23.364;2023-07-29T12:10:06;2.40;;;1.70;;
6133;SDS011;3098;42.678;23.364;2023-07-29T12:12:39;4.28;;;1.70;;
6133;SDS011;3098;42.678;23.364;2023-07-29T12:15:11;4.97;;;1.45;;
6133;SDS011;3098;42.678;23.364;2023-07-29T12:17:39;1.33;;;1.23;;
6133;SDS011;3098;42.678;23.364;2023-07-29T12:20:08;1.98;;;1.60;;
6133;SDS011;3098;42.678;23.364;2023-07-29T12:22:37;2.00;;;1.60;;
6133;SDS011;3098;42.678;23.364;2023-07-29T12:25:08;1.63;;;1.42;;
6133;SDS011;3098;42.678;23.364;2023-07-29T12:27:39;2.50;;;1.63;;
6133;SDS011;3098;42.678;23.364;2023-07-29T12:30:10;1.60;;;1.40;;
6133;SDS011;3098;42.678;23.364;2023-07-29T12:32:42;3.95;;;1.50;;
6133;SDS011;3098;42.678;23.364;2023-07-29T12:35:11;1.92;;;1.40;;
6133;SDS011;3098;42.678;23.364;2023-07-29T12:37:39;2.80;;;2.10;;
6133;SDS011;3098;42.678;23.364;2023-07-29T12:40:09;2.00;;;1.83;;
6133;SDS011;3098;42.678;23.364;2023-07-29T12:42:51;2.90;;;2.10;;
6133;SDS011;3098;42.678;23.364;2023-07-29T12:45:19;2.63;;;1.90;;
6133;SDS011;3098;42.678;23.364;2023-07-29T12:47:51;2.58;;;1.65;;
6133;SDS011;3098;42.678;23.364;2023-07-29T12:50:18;5.22;;;2.03;;
6133;SDS011;3098;42.678;23.364;2023-07-29T12:52:46;4.65;;;1.70;;
6133;SDS011;3098;42.678;23.364;2023-07-29T12:55:13;2.83;;;1.70;;
6133;SDS011;3098;42.678;23.364;2023-07-29T12:57:41;2.28;;;1.73;;
6133;SDS011;3098;42.678;23.364;2023-07-29T13:00:11;4.13;;;1.88;;
6133;SDS011;3098;42.678;23.364;2023-07-29T13:02:38;1.92;;;1.60;;
6133;SDS011;3098;42.678;23.364;2023-07-29T13:05:06;2.65;;;2.10;;
6133;SDS011;3098;42.678;23.364;2023-07-29T13:07:36;2.10;;;1.60;;
6133;SDS011;3098;42.678;23.364;2023-07-29T13:10:03;2.50;;;1.77;;
6133;SDS011;3098;42.678;23.364;2023-07-29T13:12:31;1.67;;;1.52;;
6133;SDS011;3098;42.678;23.364;2023-07-29T13:14:58;3.78;;;2.10;;
6133;SDS011;3098;42.678;23.364;2023-07-29T13:17:27;2.65;;;1.80;;
6133;SDS011;3098;42.678;23.364;2023-07-29T13:19:54;4.00;;;1.67;;
6133;SDS011;3098;42.678;23.364;2023-07-29T13:22:21;4.88;;;1.70;;
6133;SDS011;3098;42.678;23.364;2023-07-29T13:24:48;1.75;;;1.60;;
6133;SDS011;3098;42.678;23.364;2023-07-29T13:27:16;2.67;;;2.08;;
6133;SDS011;3098;42.678;23.364;2023-07-29T13:29:43;2.25;;;1.40;;
6133;SDS011;3098;42.678;23.364;2023-07-29T13:32:12;1.90;;;1.50;;
6133;SDS011;3098;42.678;23.364;2023-07-29T13:34:40;2.10;;;1.40;;
6133;SDS011;3098;42.678;23.364;2023-07-29T13:37:07;2.10;;;1.50;;
6133;SDS011;3098;42.678;23.364;2023-07-29T13:39:34;5.13;;;1.75;;
6133;SDS011;3098;42.678;23.364;2023-07-29T13:42:02;4.13;;;1.63;;
6133;SDS011;3098;42.678;23.364;2023-07-29T13:44:29;2.50;;;1.70;;
6133;SDS011;3098;42.678;23.364;2023-07-29T13:46:57;3.42;;;2.05;;
6133;SDS011;3098;42.678;23.364;2023-07-29T13:49:25;3.33;;;1.70;;
6133;SDS011;3098;42.678;23.364;2023-07-29T13:51:53;2.05;;;1.60;;
6133;SDS011;3098;42.678;23.364;2023-07-29T13:54:22;3.35;;;2.22;;
6133;SDS011;3098;42.678;23.364;2023-07-29T13:56:50;4.00;;;1.90;;
6133;SDS011;3098;42.678;23.364;2023-07-29T13:59:19;3.00;;;1.60;;
6133;SDS011;3098;42.678;23.364;2023-07-29T14:01:46;3.75;;;2.13;;
6133;SDS011;3098;42.678;23.364;2023-07-29T14:04:13;2.85;;;1.70;;
6133;SDS011;3098;42.678;23.364;2023-07-29T14:06:40;3.38;;;2.03;;
6133;SDS011;3098;42.678;23.364;2023-07-29T14:09:09;2.25;;;1.92;;
6133;SDS011;3098;42.678;23.364;2023-07-29T14:11:36;2.33;;;1.55;;
6133;SDS011;3098;42.678;23.364;2023-07-29T14:14:03;2.67;;;1.90;;
6133;SDS011;3098;42.678;23.364;2023-07-29T14:16:31;2.00;;;1.63;;
6133;SDS011;3098;42.678;23.364;2023-07-29T14:18:58;2.50;;;1.80;;
6133;SDS011;3098;42.678;23.364;2023-07-29T14:21:25;2.00;;;1.60;;
6133;SDS011;3098;42.678;23.364;2023-07-29T14:23:53;3.13;;;1.77;;
6133;SDS011;3098;42.678;23.364;2023-07-29T14:26:22;3.13;;;1.42;;
6133;SDS011;3098;42.678;23.364;2023-07-29T14:28:49;1.85;;;1.50;;
6133;SDS011;3098;42.678;23.364;2023-07-29T14:31:16;2.80;;;1.60;;
6133;SDS011;3098;42.678;23.364;2023-07-29T14:33:43;3.97;;;1.88;;
6133;SDS011;3098;42.678;23.364;2023-07-29T14:36:11;3.33;;;1.73;;
6133;SDS011;3098;42.678;23.364;2023-07-29T14:38:44;3.70;;;1.77;;
6133;SDS011;3098;42.678;23.364;2023-07-29T14:41:13;3.85;;;2.58;;
6133;SDS011;3098;42.678;23.364;2023-07-29T14:43:44;4.03;;;2.05;;
6133;SDS011;3098;42.678;23.364;2023-07-29T14:46:11;3.17;;;2.08;;
6133;SDS011;3098;42.678;23.364;2023-07-29T14:48:39;4.18;;;2.55;;
6133;SDS011;3098;42.678;23.364;2023-07-29T14:51:06;2.05;;;1.50;;
6133;SDS011;3098;42.678;23.364;2023-07-29T14:53:33;4.30;;;2.08;;
6133;SDS011;3098;42.678;23.364;2023-07-29T14:56:00;3.97;;;2.50;;
6133;SDS011;3098;42.678;23.364;2023-07-29T14:58:27;2.40;;;2.10;;
6133;SDS011;3098;42.678;23.364;2023-07-29T15:00:56;1.65;;;1.55;;
6133;SDS011;3098;42.678;23.364;2023-07-29T15:03:24;1.67;;;1.55;;
6133;SDS011;3098;42.678;23.364;2023-07-29T15:05:51;3.67;;;1.85;;
6133;SDS011;3098;42.678;23.364;2023-07-29T15:08:19;2.42;;;1.90;;
6133;SDS011;3098;42.678;23.364;2023-07-29T15:10:46;2.88;;;1.85;;
6133;SDS011;3098;42.678;23.364;2023-07-29T15:13:14;2.70;;;1.75;;